sensor_id;sensor_type;location;lat;lon;timestamp;pressure;altitude;pressure_sealevel;temperature
15544;BMP180;7873;52.230;12.856;2023-04-15T00:00:37;99805.13;;;26.72
15544;BMP180;7873;52.230;12.856;2023-04-15T00:03:03;99811.00;;;26.69
15544;BMP180;7873;52.230;12.856;2023-04-15T00:05:30;99809.72;;;26.71
15544;BMP180;7873;52.230;12.856;2023-04-15T00:07:59;99802.50;;;26.65
15544;BMP180;7873;52.230;12.856;2023-04-15T00:10:26;99806.69;;;26.61
15544;BMP180;7873;52.230;12.856;2023-04-15T00:12:53;99807.53;;;26.62
15544;BMP180;7873;52.230;12.856;2023-04-15T00:15:20;99808.34;;;26.62
15544;BMP180;7873;52.230;12.856;2023-04-15T00:17:49;99803.72;;;26.69
15544;BMP180;7873;52.230;12.856;2023-04-15T00:20:16;99805.88;;;26.79
15544;BMP180;7873;52.230;12.856;2023-04-15T00:22:43;99800.66;;;26.84
15544;BMP180;7873;52.230;12.856;2023-04-15T00:25:11;99797.72;;;26.85
15544;BMP180;7873;52.230;12.856;2023-04-15T00:27:37;99794.22;;;26.85
15544;BMP180;7873;52.230;12.856;2023-04-15T00:30:06;99796.31;;;26.83
15544;BMP180;7873;52.230;12.856;2023-04-15T00:32:32;99789.47;;;26.80
15544;BMP180;7873;52.230;12.856;2023-04-15T00:34:59;99795.09;;;26.79
15544;BMP180;7873;52.230;12.856;2023-04-15T00:37:26;99789.09;;;26.77
15544;BMP180;7873;52.230;12.856;2023-04-15T00:39:53;99796.97;;;26.78
15544;BMP180;7873;52.230;12.856;2023-04-15T00:42:21;99790.53;;;26.79
15544;BMP180;7873;52.230;12.856;2023-04-15T00:44:48;99789.78;;;26.72
15544;BMP180;7873;52.230;12.856;2023-04-15T00:47:15;99781.13;;;26.64
15544;BMP180;7873;52.230;12.856;2023-04-15T00:49:42;99781.59;;;26.61
15544;BMP180;7873;52.230;12.856;2023-04-15T00:52:09;99788.53;;;26.50
15544;BMP180;7873;52.230;12.856;2023-04-15T00:54:35;99779.22;;;26.46
15544;BMP180;7873;52.230;12.856;2023-04-15T00:57:04;99786.97;;;26.36
15544;BMP180;7873;52.230;12.856;2023-04-15T00:59:32;99781.34;;;26.38
15544;BMP180;7873;52.230;12.856;2023-04-15T01:01:59;99779.47;;;26.38
15544;BMP180;7873;52.230;12.856;2023-04-15T01:04:26;99773.03;;;26.39
15544;BMP180;7873;52.230;12.856;2023-04-15T01:06:53;99776.59;;;26.33
15544;BMP180;7873;52.230;12.856;2023-04-15T01:09:20;99770.00;;;26.29
15544;BMP180;7873;52.230;12.856;2023-04-15T01:11:47;99776.66;;;26.27
15544;BMP180;7873;52.230;12.856;2023-04-15T01:14:14;99776.31;;;26.23
15544;BMP180;7873;52.230;12.856;2023-04-15T01:16:42;99775.06;;;26.19
15544;BMP180;7873;52.230;12.856;2023-04-15T01:19:09;99785.03;;;26.19
15544;BMP180;7873;52.230;12.856;2023-04-15T01:21:36;99775.47;;;26.23
15544;BMP180;7873;52.230;12.856;2023-04-15T01:24:08;99773.81;;;26.22
15544;BMP180;7873;52.230;12.856;2023-04-15T01:26:36;99774.28;;;26.12
15544;BMP180;7873;52.230;12.856;2023-04-15T01:29:03;99771.88;;;26.04
15544;BMP180;7873;52.230;12.856;2023-04-15T01:31:31;99763.53;;;26.06
15544;BMP180;7873;52.230;12.856;2023-04-15T01:33:58;99769.13;;;26.11
15544;BMP180;7873;52.230;12.856;2023-04-15T01:36:25;99767.91;;;26.07
15544;BMP180;7873;52.230;12.856;2023-04-15T01:38:52;99768.75;;;26.07
15544;BMP180;7873;52.230;12.856;2023-04-15T01:41:20;99764.38;;;26.06
15544;BMP180;7873;52.230;12.856;2023-04-15T01:43:49;99765.03;;;26.02
15544;BMP180;7873;52.230;12.856;2023-04-15T01:46:16;99760.53;;;25.96
15544;BMP180;7873;52.230;12.856;2023-04-15T01:48:43;99757.84;;;25.96
15544;BMP180;7873;52.230;12.856;2023-04-15T01:51:10;99759.94;;;25.94
15544;BMP180;7873;52.230;12.856;2023-04-15T01:53:37;99758.09;;;25.88
15544;BMP180;7873;52.230;12.856;2023-04-15T01:56:04;99755.00;;;25.84
15544;BMP180;7873;52.230;12.856;2023-04-15T01:58:31;99758.31;;;25.86
15544;BMP180;7873;52.230;12.856;2023-04-15T02:00:59;99753.53;;;25.88
15544;BMP180;7873;52.230;12.856;2023-04-15T02:03:27;99741.69;;;25.89
15544;BMP180;7873;52.230;12.856;2023-04-15T02:05:54;99745.84;;;25.92
15544;BMP180;7873;52.230;12.856;2023-04-15T02:08:21;99746.28;;;25.89
15544;BMP180;7873;52.230;12.856;2023-04-15T02:10:48;99740.47;;;25.85
15544;BMP180;7873;52.230;12.856;2023-04-15T02:13:14;99741.53;;;25.84
15544;BMP180;7873;52.230;12.856;2023-04-15T02:15:46;99741.69;;;25.83
15544;BMP180;7873;52.230;12.856;2023-04-15T02:18:14;99741.34;;;25.79
15544;BMP180;7873;52.230;12.856;2023-04-15T02:20:41;99741.78;;;25.76
15544;BMP180;7873;52.230;12.856;2023-04-15T02:23:08;99734.69;;;25.75
15544;BMP180;7873;52.230;12.856;2023-04-15T02:25:35;99746.53;;;25.74
15544;BMP180;7873;52.230;12.856;2023-04-15T02:28:03;99739.88;;;25.77
15544;BMP180;7873;52.230;12.856;2023-04-15T02:30:30;99739.72;;;25.72
15544;BMP180;7873;52.230;12.856;2023-04-15T02:32:59;99740.75;;;25.71
15544;BMP180;7873;52.230;12.856;2023-04-15T02:35:27;99735.41;;;25.64
15544;BMP180;7873;52.230;12.856;2023-04-15T02:37:54;99733.78;;;25.57
15544;BMP180;7873;52.230;12.856;2023-04-15T02:40:21;99736.53;;;25.51
15544;BMP180;7873;52.230;12.856;2023-04-15T02:42:47;99737.53;;;25.56
15544;BMP180;7873;52.230;12.856;2023-04-15T02:45:14;99742.94;;;25.56
15544;BMP180;7873;52.230;12.856;2023-04-15T02:47:42;99739.44;;;25.56
15544;BMP180;7873;52.230;12.856;2023-04-15T02:50:11;99736.72;;;25.56
15544;BMP180;7873;52.230;12.856;2023-04-15T02:52:41;99739.44;;;25.56
15544;BMP180;7873;52.230;12.856;2023-04-15T02:55:09;99743.97;;;25.55
15544;BMP180;7873;52.230;12.856;2023-04-15T02:57:36;99736.50;;;25.57
15544;BMP180;7873;52.230;12.856;2023-04-15T03:00:04;99737.34;;;25.58
15544;BMP180;7873;52.230;12.856;2023-04-15T03:02:34;99742.94;;;25.56
15544;BMP180;7873;52.230;12.856;2023-04-15T03:05:01;99739.84;;;25.53
15544;BMP180;7873;52.230;12.856;2023-04-15T03:07:28;99736.16;;;25.47
15544;BMP180;7873;52.230;12.856;2023-04-15T03:09:56;99731.81;;;25.46
15544;BMP180;7873;52.230;12.856;2023-04-15T03:12:23;99732.25;;;25.43
15544;BMP180;7873;52.230;12.856;2023-04-15T03:14:50;99733.06;;;25.44
15544;BMP180;7873;52.230;12.856;2023-04-15T03:17:16;99732.44;;;25.42
15544;BMP180;7873;52.230;12.856;2023-04-15T03:19:43;99733.09;;;25.37
15544;BMP180;7873;52.230;12.856;2023-04-15T03:22:10;99730.63;;;25.36
15544;BMP180;7873;52.230;12.856;2023-04-15T03:24:36;99731.66;;;25.35
15544;BMP180;7873;52.230;12.856;2023-04-15T03:27:04;99733.16;;;25.31
15544;BMP180;7873;52.230;12.856;2023-04-15T03:29:32;99738.72;;;25.29
15544;BMP180;7873;52.230;12.856;2023-04-15T03:31:59;99744.31;;;25.28
15544;BMP180;7873;52.230;12.856;2023-04-15T03:34:26;99737.53;;;25.25
15544;BMP180;7873;52.230;12.856;2023-04-15T03:36:52;99737.34;;;25.20
15544;BMP180;7873;52.230;12.856;2023-04-15T03:39:19;99740.03;;;25.14
15544;BMP180;7873;52.230;12.856;2023-04-15T03:41:46;99730.28;;;25.13
15544;BMP180;7873;52.230;12.856;2023-04-15T03:44:14;99736.28;;;25.15
15544;BMP180;7873;52.230;12.856;2023-04-15T03:46:40;99730.94;;;25.08
15544;BMP180;7873;52.230;12.856;2023-04-15T03:49:07;99730.28;;;25.13
15544;BMP180;7873;52.230;12.856;2023-04-15T03:51:34;99739.41;;;25.12
15544;BMP180;7873;52.230;12.856;2023-04-15T03:54:01;99732.59;;;25.03
15544;BMP180;7873;52.230;12.856;2023-04-15T03:56:27;99726.22;;;24.97
15544;BMP180;7873;52.230;12.856;2023-04-15T03:58:54;99740.72;;;24.96
15544;BMP180;7873;52.230;12.856;2023-04-15T04:01:23;99739.09;;;24.95
15544;BMP180;7873;52.230;12.856;2023-04-15T04:03:49;99732.59;;;25.03
15544;BMP180;7873;52.230;12.856;2023-04-15T04:06:16;99735.69;;;25.06
15544;BMP180;7873;52.230;12.856;2023-04-15T04:08:43;99727.97;;;25.16
15544;BMP180;7873;52.230;12.856;2023-04-15T04:11:09;99730.66;;;25.16
15544;BMP180;7873;52.230;12.856;2023-04-15T04:13:36;99735.91;;;25.18
15544;BMP180;7873;52.230;12.856;2023-04-15T04:16:03;99742.72;;;25.20
15544;BMP180;7873;52.230;12.856;2023-04-15T04:18:31;99749.16;;;25.19
15544;BMP180;7873;52.230;12.856;2023-04-15T04:20:59;99742.28;;;25.17
15544;BMP180;7873;52.230;12.856;2023-04-15T04:23:25;99751.00;;;25.12
15544;BMP180;7873;52.230;12.856;2023-04-15T04:25:52;99750.56;;;25.15
15544;BMP180;7873;52.230;12.856;2023-04-15T04:28:19;99748.72;;;25.16
15544;BMP180;7873;52.230;12.856;2023-04-15T04:30:46;99751.00;;;25.19
15544;BMP180;7873;52.230;12.856;2023-04-15T04:33:12;99762.38;;;25.14
15544;BMP180;7873;52.230;12.856;2023-04-15T04:35:40;99758.03;;;25.13
15544;BMP180;7873;52.230;12.856;2023-04-15T04:38:07;99754.91;;;25.16
15544;BMP180;7873;52.230;12.856;2023-04-15T04:40:34;99759.25;;;25.17
15544;BMP180;7873;52.230;12.856;2023-04-15T04:43:00;99760.31;;;25.16
15544;BMP180;7873;52.230;12.856;2023-04-15T04:45:27;99763.44;;;25.13
15544;BMP180;7873;52.230;12.856;2023-04-15T04:47:54;99764.72;;;25.11
15544;BMP180;7873;52.230;12.856;2023-04-15T04:50:21;99757.69;;;25.03
15544;BMP180;7873;52.230;12.856;2023-04-15T04:52:49;99767.25;;;24.99
15544;BMP180;7873;52.230;12.856;2023-04-15T04:55:16;99762.03;;;24.98
15544;BMP180;7873;52.230;12.856;2023-04-15T04:57:42;99752.53;;;24.95
15544;BMP180;7873;52.230;12.856;2023-04-15T05:00:10;99753.56;;;24.94
15544;BMP180;7873;52.230;12.856;2023-04-15T05:02:37;99754.19;;;24.96
15544;BMP180;7873;52.230;12.856;2023-04-15T05:05:04;99751.91;;;24.93
15544;BMP180;7873;52.230;12.856;2023-04-15T05:07:31;99759.59;;;24.90
15544;BMP180;7873;52.230;12.856;2023-04-15T05:09:59;99762.06;;;24.91
15544;BMP180;7873;52.230;12.856;2023-04-15T05:12:26;99760.41;;;24.90
15544;BMP180;7873;52.230;12.856;2023-04-15T05:14:52;99767.44;;;24.91
15544;BMP180;7873;52.230;12.856;2023-04-15T05:17:19;99772.84;;;24.91
15544;BMP180;7873;52.230;12.856;2023-04-15T05:19:46;99767.44;;;24.91
15544;BMP180;7873;52.230;12.856;2023-04-15T05:22:13;99765.19;;;24.88
15544;BMP180;7873;52.230;12.856;2023-04-15T05:24:40;99761.88;;;24.86
15544;BMP180;7873;52.230;12.856;2023-04-15T05:27:08;99761.88;;;24.86
15544;BMP180;7873;52.230;12.856;2023-04-15T05:29:36;99765.19;;;24.82
15544;BMP180;7873;52.230;12.856;2023-04-15T05:32:02;99771.22;;;24.77
15544;BMP180;7873;52.230;12.856;2023-04-15T05:34:29;99777.22;;;24.79
15544;BMP180;7873;52.230;12.856;2023-04-15T05:36:56;99772.91;;;24.72
15544;BMP180;7873;52.230;12.856;2023-04-15T05:39:22;99775.19;;;24.68
15544;BMP180;7873;52.230;12.856;2023-04-15T05:41:49;99773.75;;;24.72
15544;BMP180;7873;52.230;12.856;2023-04-15T05:44:17;99778.03;;;24.80
15544;BMP180;7873;52.230;12.856;2023-04-15T05:46:44;99776.38;;;24.85
15544;BMP180;7873;52.230;12.856;2023-04-15T05:49:10;99783.59;;;24.91
15544;BMP180;7873;52.230;12.856;2023-04-15T05:51:37;99777.00;;;24.87
15544;BMP180;7873;52.230;12.856;2023-04-15T05:54:04;99780.09;;;24.91
15544;BMP180;7873;52.230;12.856;2023-04-15T05:56:31;99783.84;;;24.83
15544;BMP180;7873;52.230;12.856;2023-04-15T05:58:57;99791.72;;;24.85
15544;BMP180;7873;52.230;12.856;2023-04-15T06:01:26;99789.84;;;24.85
15544;BMP180;7873;52.230;12.856;2023-04-15T06:03:53;99785.06;;;24.87
15544;BMP180;7873;52.230;12.856;2023-04-15T06:06:19;99790.25;;;24.89
15544;BMP180;7873;52.230;12.856;2023-04-15T06:08:46;99784.88;;;24.89
15544;BMP180;7873;52.230;12.856;2023-04-15T06:11:13;99794.38;;;24.91
15544;BMP180;7873;52.230;12.856;2023-04-15T06:13:40;99785.88;;;24.94
15544;BMP180;7873;52.230;12.856;2023-04-15T06:16:06;99780.91;;;24.91
15544;BMP180;7873;52.230;12.856;2023-04-15T06:18:34;99773.50;;;24.80
15544;BMP180;7873;52.230;12.856;2023-04-15T06:21:01;99770.44;;;24.51
15544;BMP180;7873;52.230;12.856;2023-04-15T06:23:28;99772.72;;;24.41
15544;BMP180;7873;52.230;12.856;2023-04-15T06:25:55;99781.84;;;24.40
15544;BMP180;7873;52.230;12.856;2023-04-15T06:28:21;99793.41;;;24.40
15544;BMP180;7873;52.230;12.856;2023-04-15T06:30:48;99784.72;;;24.45
15544;BMP180;7873;52.230;12.856;2023-04-15T06:33:15;99772.69;;;24.47
15544;BMP180;7873;52.230;12.856;2023-04-15T06:35:43;99780.78;;;24.60
15544;BMP180;7873;52.230;12.856;2023-04-15T06:38:10;99782.63;;;24.66
15544;BMP180;7873;52.230;12.856;2023-04-15T06:40:36;99786.56;;;24.70
15544;BMP180;7873;52.230;12.856;2023-04-15T06:43:03;99792.19;;;24.49
15544;BMP180;7873;52.230;12.856;2023-04-15T06:45:30;99804.16;;;24.47
15544;BMP180;7873;52.230;12.856;2023-04-15T06:47:56;99805.41;;;24.44
15544;BMP180;7873;52.230;12.856;2023-04-15T06:50:23;99808.94;;;24.32
15544;BMP180;7873;52.230;12.856;2023-04-15T06:52:52;99810.59;;;24.33
15544;BMP180;7873;52.230;12.856;2023-04-15T06:55:19;99812.03;;;24.29
15544;BMP180;7873;52.230;12.856;2023-04-15T06:57:45;99809.97;;;24.24
15544;BMP180;7873;52.230;12.856;2023-04-15T07:00:13;99808.53;;;24.22
15544;BMP180;7873;52.230;12.856;2023-04-15T07:02:40;99815.97;;;24.20
15544;BMP180;7873;52.230;12.856;2023-04-15T07:05:06;99818.06;;;24.18
15544;BMP180;7873;52.230;12.856;2023-04-15T07:07:34;99840.19;;;24.13
15544;BMP180;7873;52.230;12.856;2023-04-15T07:10:03;99829.00;;;23.97
15544;BMP180;7873;52.230;12.856;2023-04-15T07:12:30;99820.91;;;23.97
15544;BMP180;7873;52.230;12.856;2023-04-15T07:14:57;99820.91;;;23.97
15544;BMP180;7873;52.230;12.856;2023-04-15T07:17:23;99817.19;;;23.98
15544;BMP180;7873;52.230;12.856;2023-04-15T07:19:50;99821.53;;;23.99
15544;BMP180;7873;52.230;12.856;2023-04-15T07:22:17;99814.09;;;24.01
15544;BMP180;7873;52.230;12.856;2023-04-15T07:24:43;99817.81;;;24.00
15544;BMP180;7873;52.230;12.856;2023-04-15T07:27:11;99812.63;;;23.98
15544;BMP180;7873;52.230;12.856;2023-04-15T07:29:38;99817.19;;;23.98
15544;BMP180;7873;52.230;12.856;2023-04-15T07:32:05;99820.69;;;23.98
15544;BMP180;7873;52.230;12.856;2023-04-15T07:34:31;99827.34;;;23.96
15544;BMP180;7873;52.230;12.856;2023-04-15T07:36:58;99831.25;;;24.00
15544;BMP180;7873;52.230;12.856;2023-04-15T07:39:25;99830.88;;;24.09
15544;BMP180;7873;52.230;12.856;2023-04-15T07:41:51;99838.31;;;24.20
15544;BMP180;7873;52.230;12.856;2023-04-15T07:44:19;99832.13;;;24.26
15544;BMP180;7873;52.230;12.856;2023-04-15T07:46:46;99835.84;;;24.32
15544;BMP180;7873;52.230;12.856;2023-04-15T07:49:13;99830.88;;;24.35
15544;BMP180;7873;52.230;12.856;2023-04-15T07:51:40;99833.38;;;24.37
15544;BMP180;7873;52.230;12.856;2023-04-15T07:54:06;99831.28;;;24.32
15544;BMP180;7873;52.230;12.856;2023-04-15T07:56:33;99839.16;;;24.21
15544;BMP180;7873;52.230;12.856;2023-04-15T07:59:00;99843.25;;;23.97
15544;BMP180;7873;52.230;12.856;2023-04-15T08:01:30;99845.72;;;23.92
15544;BMP180;7873;52.230;12.856;2023-04-15T08:03:58;99851.09;;;23.92
15544;BMP180;7873;52.230;12.856;2023-04-15T08:06:24;99851.09;;;23.92
15544;BMP180;7873;52.230;12.856;2023-04-15T08:08:51;99856.94;;;24.02
15544;BMP180;7873;52.230;12.856;2023-04-15T08:11:19;99849.09;;;24.14
15544;BMP180;7873;52.230;12.856;2023-04-15T08:13:46;99849.47;;;24.17
15544;BMP180;7873;52.230;12.856;2023-04-15T08:16:16;99845.16;;;24.16
15544;BMP180;7873;52.230;12.856;2023-04-15T08:18:44;99848.22;;;24.07
15544;BMP180;7873;52.230;12.856;2023-04-15T08:21:11;99854.63;;;23.93
15544;BMP180;7873;52.230;12.856;2023-04-15T08:23:38;99861.03;;;23.98
15544;BMP180;7873;52.230;12.856;2023-04-15T08:26:05;99861.66;;;24.00
15544;BMP180;7873;52.230;12.856;2023-04-15T08:28:33;99858.56;;;23.97
15544;BMP180;7873;52.230;12.856;2023-04-15T08:31:00;99867.03;;;24.00
15544;BMP180;7873;52.230;12.856;2023-04-15T08:33:26;99866.00;;;24.01
15544;BMP180;7873;52.230;12.856;2023-04-15T08:35:55;99871.78;;;23.98
15544;BMP180;7873;52.230;12.856;2023-04-15T08:38:22;99871.78;;;23.98
15544;BMP180;7873;52.230;12.856;2023-04-15T08:40:49;99874.28;;;23.93
15544;BMP180;7873;52.230;12.856;2023-04-15T08:43:20;99876.72;;;23.82
15544;BMP180;7873;52.230;12.856;2023-04-15T08:45:49;99882.22;;;23.68
15544;BMP180;7873;52.230;12.856;2023-04-15T08:48:17;99883.66;;;23.64
15544;BMP180;7873;52.230;12.856;2023-04-15T08:50:44;99885.56;;;23.76
15544;BMP180;7873;52.230;12.856;2023-04-15T08:53:13;99884.19;;;23.86
15544;BMP180;7873;52.230;12.856;2023-04-15T08:55:42;99888.34;;;23.95
15544;BMP180;7873;52.230;12.856;2023-04-15T08:58:10;99885.63;;;23.89
15544;BMP180;7873;52.230;12.856;2023-04-15T09:00:38;99886.88;;;23.99
15544;BMP180;7873;52.230;12.856;2023-04-15T09:03:05;99894.97;;;24.06
15544;BMP180;7873;52.230;12.856;2023-04-15T09:05:32;99889.81;;;24.11
15544;BMP180;7873;52.230;12.856;2023-04-15T09:07:59;99897.69;;;24.12
15544;BMP180;7873;52.230;12.856;2023-04-15T09:10:27;99894.34;;;23.91
15544;BMP180;7873;52.230;12.856;2023-04-15T09:12:54;99906.84;;;23.77
15544;BMP180;7873;52.230;12.856;2023-04-15T09:15:23;99901.03;;;23.68
15544;BMP180;7873;52.230;12.856;2023-04-15T09:17:50;99906.44;;;23.74
15544;BMP180;7873;52.230;12.856;2023-04-15T09:20:17;99901.47;;;23.77
15544;BMP180;7873;52.230;12.856;2023-04-15T09:22:46;99908.78;;;23.83
15544;BMP180;7873;52.230;12.856;2023-04-15T09:25:28;99901.38;;;23.98
15544;BMP180;7873;52.230;12.856;2023-04-15T09:27:57;99911.34;;;24.04
15544;BMP180;7873;52.230;12.856;2023-04-15T09:30:24;99910.28;;;24.12
15544;BMP180;7873;52.230;12.856;2023-04-15T09:32:52;99908.41;;;23.99
15544;BMP180;7873;52.230;12.856;2023-04-15T09:35:19;99915.63;;;23.92
15544;BMP180;7873;52.230;12.856;2023-04-15T09:37:46;99919.53;;;23.90
15544;BMP180;7873;52.230;12.856;2023-04-15T09:40:13;99916.72;;;24.04
15544;BMP180;7873;52.230;12.856;2023-04-15T09:42:54;99919.22;;;24.19
15544;BMP180;7873;52.230;12.856;2023-04-15T09:45:21;99921.13;;;24.31
15544;BMP180;7873;52.230;12.856;2023-04-15T09:47:48;99922.78;;;24.39
15544;BMP180;7873;52.230;12.856;2023-04-15T09:50:17;99921.13;;;24.44
15544;BMP180;7873;52.230;12.856;2023-04-15T09:52:45;99926.09;;;24.47
15544;BMP180;7873;52.230;12.856;2023-04-15T09:55:13;99930.09;;;24.51
15544;BMP180;7873;52.230;12.856;2023-04-15T09:57:40;99931.53;;;24.54
15544;BMP180;7873;52.230;12.856;2023-04-15T10:00:10;99933.41;;;24.53
15544;BMP180;7873;52.230;12.856;2023-04-15T10:02:38;99940.22;;;24.56
15544;BMP180;7873;52.230;12.856;2023-04-15T10:05:07;99943.94;;;24.55
15544;BMP180;7873;52.230;12.856;2023-04-15T10:07:37;99946.44;;;24.56
15544;BMP180;7873;52.230;12.856;2023-04-15T10:10:06;99945.59;;;24.56
15544;BMP180;7873;52.230;12.856;2023-04-15T10:12:36;99944.78;;;24.55
15544;BMP180;7873;52.230;12.856;2023-04-15T10:15:04;99951.56;;;24.38
15544;BMP180;7873;52.230;12.856;2023-04-15T10:17:33;99948.66;;;24.33
15544;BMP180;7873;52.230;12.856;2023-04-15T10:20:03;99953.78;;;24.22
15544;BMP180;7873;52.230;12.856;2023-04-15T10:22:31;99951.06;;;24.09
15544;BMP180;7873;52.230;12.856;2023-04-15T10:24:58;99959.75;;;24.11
15544;BMP180;7873;52.230;12.856;2023-04-15T10:27:26;99961.41;;;24.12
15544;BMP180;7873;52.230;12.856;2023-04-15T10:29:53;99959.75;;;24.11
15544;BMP180;7873;52.230;12.856;2023-04-15T10:32:20;99965.50;;;24.01
15544;BMP180;7873;52.230;12.856;2023-04-15T10:34:49;99964.88;;;23.99
15544;BMP180;7873;52.230;12.856;2023-04-15T10:37:20;99966.53;;;24.00
15544;BMP180;7873;52.230;12.856;2023-04-15T10:39:47;99967.97;;;23.96
15544;BMP180;7873;52.230;12.856;2023-04-15T10:42:16;99969.84;;;23.96
15544;BMP180;7873;52.230;12.856;2023-04-15T10:44:47;99971.47;;;23.90
15544;BMP180;7873;52.230;12.856;2023-04-15T10:47:17;99970.84;;;23.88
15544;BMP180;7873;52.230;12.856;2023-04-15T10:49:46;99976.00;;;23.83
15544;BMP180;7873;52.230;12.856;2023-04-15T10:52:15;99975.94;;;23.77
15544;BMP180;7873;52.230;12.856;2023-04-15T10:54:43;99978.88;;;23.82
15544;BMP180;7873;52.230;12.856;2023-04-15T10:57:15;99980.13;;;23.86
15544;BMP180;7873;52.230;12.856;2023-04-15T11:00:01;99981.13;;;23.78
15544;BMP180;7873;52.230;12.856;2023-04-15T11:02:52;99983.81;;;23.78
15544;BMP180;7873;52.230;12.856;2023-04-15T11:05:21;99986.75;;;23.83
15544;BMP180;7873;52.230;12.856;2023-04-15T11:07:52;99986.50;;;23.78
15544;BMP180;7873;52.230;12.856;2023-04-15T11:10:49;99989.97;;;23.73
15544;BMP180;7873;52.230;12.856;2023-04-15T11:13:28;99987.63;;;23.63
15544;BMP180;7873;52.230;12.856;2023-04-15T11:15:59;99987.06;;;23.68
15544;BMP180;7873;52.230;12.856;2023-04-15T11:18:30;99990.19;;;23.71
15544;BMP180;7873;52.230;12.856;2023-04-15T11:21:03;99994.13;;;23.75
15544;BMP180;7873;52.230;12.856;2023-04-15T11:23:37;99995.38;;;23.79
15544;BMP180;7873;52.230;12.856;2023-04-15T11:26:06;99999.16;;;23.84
15544;BMP180;7873;52.230;12.856;2023-04-15T11:28:37;100005.34;;;23.85
15544;BMP180;7873;52.230;12.856;2023-04-15T11:31:06;100006.38;;;23.84
15544;BMP180;7873;52.230;12.856;2023-04-15T11:33:35;100002.91;;;23.83
15544;BMP180;7873;52.230;12.856;2023-04-15T11:36:02;100003.69;;;23.84
15544;BMP180;7873;52.230;12.856;2023-04-15T11:38:29;100011.13;;;23.82
15544;BMP180;7873;52.230;12.856;2023-04-15T11:40:58;100012.13;;;23.81
15544;BMP180;7873;52.230;12.856;2023-04-15T11:43:25;100009.66;;;23.79
15544;BMP180;7873;52.230;12.856;2023-04-15T11:45:53;100018.53;;;23.80
15544;BMP180;7873;52.230;12.856;2023-04-15T11:48:22;100022.09;;;23.80
15544;BMP180;7873;52.230;12.856;2023-04-15T11:50:53;100022.44;;;23.77
15544;BMP180;7873;52.230;12.856;2023-04-15T11:53:20;100020.78;;;23.76
15544;BMP180;7873;52.230;12.856;2023-04-15T11:55:48;100028.22;;;23.74
15544;BMP180;7873;52.230;12.856;2023-04-15T11:58:18;100024.91;;;23.73
15544;BMP180;7873;52.230;12.856;2023-04-15T12:00:47;100028.63;;;23.72
15544;BMP180;7873;52.230;12.856;2023-04-15T12:03:17;100029.66;;;23.71
15544;BMP180;7873;52.230;12.856;2023-04-15T12:06:06;100038.75;;;23.70
15544;BMP180;7873;52.230;12.856;2023-04-15T12:08:54;100042.69;;;23.67
15544;BMP180;7873;52.230;12.856;2023-04-15T12:11:31;100040.81;;;23.68
15544;BMP180;7873;52.230;12.856;2023-04-15T12:14:04;100041.22;;;23.65
15544;BMP180;7873;52.230;12.856;2023-04-15T12:16:32;100051.97;;;23.65
15544;BMP180;7873;52.230;12.856;2023-04-15T12:18:59;100044.94;;;23.64
15544;BMP180;7873;52.230;12.856;2023-04-15T12:21:33;100054.00;;;23.63
15544;BMP180;7873;52.230;12.856;2023-04-15T12:24:01;100060.22;;;23.63
15544;BMP180;7873;52.230;12.856;2023-04-15T12:26:30;100058.53;;;23.62
15544;BMP180;7873;52.230;12.856;2023-04-15T12:29:02;100058.94;;;23.59
15544;BMP180;7873;52.230;12.856;2023-04-15T12:31:29;100058.94;;;23.59
15544;BMP180;7873;52.230;12.856;2023-04-15T12:33:57;100067.22;;;23.58
15544;BMP180;7873;52.230;12.856;2023-04-15T12:36:23;100069.06;;;23.57
15544;BMP180;7873;52.230;12.856;2023-04-15T12:38:50;100067.41;;;23.56
15544;BMP180;7873;52.230;12.856;2023-04-15T12:41:18;100073.63;;;23.57
15544;BMP180;7873;52.230;12.856;2023-04-15T12:43:45;100079.00;;;23.57
15544;BMP180;7873;52.230;12.856;2023-04-15T12:46:13;100081.03;;;23.55
15544;BMP180;7873;52.230;12.856;2023-04-15T12:48:41;100079.19;;;23.55
15544;BMP180;7873;52.230;12.856;2023-04-15T12:51:07;100082.03;;;23.54
15544;BMP180;7873;52.230;12.856;2023-04-15T12:53:35;100084.94;;;23.52
15544;BMP180;7873;52.230;12.856;2023-04-15T12:56:03;100088.66;;;23.51
15544;BMP180;7873;52.230;12.856;2023-04-15T12:58:31;100096.72;;;23.51
15544;BMP180;7873;52.230;12.856;2023-04-15T13:00:59;100097.75;;;23.50
15544;BMP180;7873;52.230;12.856;2023-04-15T13:03:28;100097.94;;;23.49
15544;BMP180;7873;52.230;12.856;2023-04-15T13:05:55;100097.00;;;23.35
15544;BMP180;7873;52.230;12.856;2023-04-15T13:08:22;100100.41;;;23.23
15544;BMP180;7873;52.230;12.856;2023-04-15T13:10:49;100102.47;;;23.21
15544;BMP180;7873;52.230;12.856;2023-04-15T13:13:16;100096.13;;;23.28
15544;BMP180;7873;52.230;12.856;2023-04-15T13:15:42;100099.44;;;23.30
15544;BMP180;7873;52.230;12.856;2023-04-15T13:18:10;100098.47;;;23.38
15544;BMP180;7873;52.230;12.856;2023-04-15T13:20:39;100099.34;;;23.45
15544;BMP180;7873;52.230;12.856;2023-04-15T13:23:06;100105.41;;;23.53
15544;BMP180;7873;52.230;12.856;2023-04-15T13:25:33;100105.09;;;23.63
15544;BMP180;7873;52.230;12.856;2023-04-15T13:28:00;100115.09;;;23.75
15544;BMP180;7873;52.230;12.856;2023-04-15T13:30:26;100107.75;;;23.90
15544;BMP180;7873;52.230;12.856;2023-04-15T13:32:53;100113.88;;;24.05
15544;BMP180;7873;52.230;12.856;2023-04-15T13:35:20;100106.09;;;24.23
15544;BMP180;7873;52.230;12.856;2023-04-15T13:37:48;100103.31;;;24.44
15544;BMP180;7873;52.230;12.856;2023-04-15T13:40:18;100111.69;;;24.68
15544;BMP180;7873;52.230;12.856;2023-04-15T13:42:45;100114.69;;;24.93
15544;BMP180;7873;52.230;12.856;2023-04-15T13:45:12;100120.97;;;25.19
15544;BMP180;7873;52.230;12.856;2023-04-15T13:47:39;100119.53;;;25.36
15544;BMP180;7873;52.230;12.856;2023-04-15T13:50:07;100117.44;;;25.38
15544;BMP180;7873;52.230;12.856;2023-04-15T13:52:33;100118.91;;;25.41
15544;BMP180;7873;52.230;12.856;2023-04-15T13:55:02;100124.09;;;25.36
15544;BMP180;7873;52.230;12.856;2023-04-15T13:57:28;100126.78;;;25.29
15544;BMP180;7873;52.230;12.856;2023-04-15T13:59:55;100128.22;;;25.25
15544;BMP180;7873;52.230;12.856;2023-04-15T14:02:22;100126.38;;;25.45
15544;BMP180;7873;52.230;12.856;2023-04-15T14:04:48;100130.91;;;25.64
15544;BMP180;7873;52.230;12.856;2023-04-15T14:07:15;100134.69;;;25.89
15544;BMP180;7873;52.230;12.856;2023-04-15T14:09:42;100130.22;;;26.33